Weather History for KHQZ - October, 2012

Change the Weather History Date:

Wednesday, October 3, 2012

  Actual Average (KDFW) Record (KDFW)
Temperature  
Mean Temperature 68 °F 72 °F  
Max Temperature 82 °F 82 °F 106 °F (1951)
Min Temperature 53 °F 61 °F 44 °F (1961)
Degree Days  
Heating Degree Days 0 1  
Month to date heating degree days 3  
Since 1 July heating degree days 9  
Cooling Degree Days 2 7  
Month to date cooling degree days 23  
Year to date cooling degree days 2600  
Growing Degree Days 18 (Base 50)    
Moisture  
Dew Point 52 °F    
Average Humidity 61    
Maximum Humidity 94    
Minimum Humidity 26    
Precipitation  
Precipitation 0.00 in 0.09 in 2.05 in (1971)
Month to date precipitation 0.28  
Year to date precipitation 26.94  
Snow  
Snow 0.00 in 0.00 in 0.00 in ()
Month to date snowfall 0.0  
Since 1 July snowfall 0.0  
Since 1 September snowfall 0.0  
Snow Depth -    
Sea Level Pressure  
Sea Level Pressure 29.99 in    
Wind  
Wind Speed 5 mph (SSE)    
Max Wind Speed 14 mph    
Max Gust Speed 20 mph    
Visibility 10 miles    
Events      
T = Trace of Precipitation, MM = Missing Value Source: NWS Daily Summary

Daily Weather History Graph

Daily Weather History Graph

Search for Another Location

Airport or City:

Trip Planner

Search our weather history database for the weather conditions in past years. The results will help you decide how hot, cold, wet, or windy it might be!

Date:

Astronomy

Oct. 03, 2012 Rise Set
Actual Time 7:21 AM CDT 7:07 PM CDT
Civil Twilight 6:57 AM CDT 7:32 PM CDT
Nautical Twilight 6:28 AM CDT 8:00 PM CDT
Astronomical Twilight 6:00 AM CDT 8:29 PM CDT
Moon 9:14 PM CDT (10/3) 10:33 AM CDT (10/3)
Length of Visible Light 12h 34m
Length of Day
11h 45m
Waning Gibbous, 88% of the Moon is Illuminated
Oct 3
Waning Gibbous
Oct 8
Last Quarter
Oct 15
New
Oct 21
First Quarter
Oct 29
Full

Hourly Weather History & Observations

Time (CDT) Temp. Dew Point Humidity Pressure Visibility Wind Dir Wind Speed Gust Speed Precip Events Conditions
12:15 AM 62.6 °F 55.4 °F 77% 29.96 in 10.0 mi SSW 3.5 mph - N/A   Clear
12:35 AM 62.6 °F 55.4 °F 77% 29.96 in 10.0 mi SSW 5.8 mph - N/A   Clear
12:55 AM 62.6 °F 55.4 °F 77% 29.96 in 10.0 mi SSW 3.5 mph - N/A   Clear
1:15 AM 60.8 °F 55.4 °F 82% 29.96 in 10.0 mi SSE 3.5 mph - N/A   Clear
1:35 AM 59.0 °F 55.4 °F 88% 29.96 in 10.0 mi SSE 3.5 mph - N/A   Clear
1:55 AM 59.0 °F 55.4 °F 88% 29.96 in 10.0 mi Calm Calm - N/A   Clear
2:15 AM 60.8 °F 55.4 °F 82% 29.96 in 10.0 mi Calm Calm - N/A   Clear
2:35 AM 59.0 °F 53.6 °F 82% 29.96 in 10.0 mi SSE 3.5 mph - N/A   Clear
2:55 AM 59.0 °F 55.4 °F 88% 29.96 in 10.0 mi South 4.6 mph - N/A   Clear
3:15 AM 59.0 °F 53.6 °F 82% 29.96 in 10.0 mi South 4.6 mph - N/A   Clear
3:35 AM 59.0 °F 53.6 °F 82% 29.96 in 10.0 mi SSE 3.5 mph - N/A   Clear
3:55 AM 57.2 °F 53.6 °F 88% 29.96 in 10.0 mi Calm Calm - N/A   Clear
4:15 AM 55.4 °F 53.6 °F 94% 29.96 in 10.0 mi SSE 4.6 mph - N/A   Clear
4:35 AM 55.4 °F 53.6 °F 94% 29.96 in 10.0 mi SSE 4.6 mph - N/A   Clear
4:55 AM 55.4 °F 53.6 °F 94% 29.96 in 10.0 mi SE 3.5 mph - N/A   Clear
5:15 AM 55.4 °F 53.6 °F 94% 29.97 in 10.0 mi SE 3.5 mph - N/A   Clear
5:35 AM 55.4 °F 53.6 °F 94% 29.97 in 10.0 mi SE 3.5 mph - N/A   Clear
5:55 AM 55.4 °F 51.8 °F 88% 29.98 in 10.0 mi Calm Calm - N/A   Clear
6:15 AM 55.4 °F 53.6 °F 94% 29.98 in 10.0 mi SE 3.5 mph - N/A   Clear
6:35 AM 53.6 °F 51.8 °F 94% 29.98 in 10.0 mi SE 4.6 mph - N/A   Clear
6:55 AM 53.6 °F 51.8 °F 94% 29.99 in 10.0 mi SE 3.5 mph - N/A   Clear
7:15 AM 53.6 °F 51.8 °F 94% 29.99 in 10.0 mi SE 3.5 mph - N/A   Clear
7:35 AM 53.6 °F 51.8 °F 94% 29.99 in 10.0 mi Calm Calm - N/A   Clear
7:55 AM 55.4 °F 51.8 °F 88% 29.99 in 10.0 mi Calm Calm - N/A   Clear
8:15 AM 55.4 °F 53.6 °F 94% 29.99 in 10.0 mi Calm Calm - N/A   Clear
8:35 AM 59.0 °F 55.4 °F 88% 30.00 in 10.0 mi Calm Calm - N/A   Clear
8:55 AM 60.8 °F 55.4 °F 82% 30.01 in 10.0 mi SSE 4.6 mph - N/A   Clear
9:15 AM 62.6 °F 55.4 °F 77% 30.01 in 10.0 mi SSE 5.8 mph - N/A   Clear
9:35 AM 66.2 °F 55.4 °F 68% 30.02 in 10.0 mi SSE 5.8 mph - N/A   Clear
9:55 AM 68.0 °F 55.4 °F 64% 30.03 in 10.0 mi South 5.8 mph - N/A   Clear
10:15 AM 69.8 °F 53.6 °F 56% 30.03 in 10.0 mi South 6.9 mph - N/A   Clear
10:35 AM 71.6 °F 55.4 °F 57% 30.03 in 10.0 mi SE 4.6 mph - N/A   Clear
10:55 AM 73.4 °F 55.4 °F 53% 30.03 in 10.0 mi SSE 6.9 mph - N/A   Clear
11:15 AM 75.2 °F 55.4 °F 50% 30.03 in 10.0 mi South 8.1 mph - N/A   Clear
11:35 AM 77.0 °F 53.6 °F 44% 30.03 in 10.0 mi South 9.2 mph - N/A   Clear
11:55 AM 77.0 °F 53.6 °F 44% 30.03 in 10.0 mi SSE 6.9 mph - N/A   Clear
12:15 PM 78.8 °F 53.6 °F 42% 30.02 in 10.0 mi SSE 10.4 mph - N/A   Clear
12:35 PM 78.8 °F 51.8 °F 39% 30.02 in 10.0 mi SSE 11.5 mph 16.1 mph N/A   Clear
12:55 PM 78.8 °F 51.8 °F 39% 30.01 in 10.0 mi SSE 11.5 mph - N/A   Clear
1:15 PM 80.6 °F 50.0 °F 34% 30.00 in 10.0 mi South 8.1 mph - N/A   Scattered Clouds
1:35 PM 80.6 °F 50.0 °F 34% 29.99 in 10.0 mi South 6.9 mph - N/A   Scattered Clouds
1:55 PM 80.6 °F 46.4 °F 30% 29.98 in 10.0 mi SSW 9.2 mph 17.3 mph N/A   Clear
2:15 PM 80.6 °F 46.4 °F 30% 29.97 in 10.0 mi SSE 9.2 mph 19.6 mph N/A   Clear
2:35 PM 80.6 °F 46.4 °F 30% 29.96 in 10.0 mi SW 10.4 mph - N/A   Clear
2:55 PM 80.6 °F 46.4 °F 30% 29.96 in 10.0 mi SSE 11.5 mph 18.4 mph N/A   Clear
3:15 PM 82.4 °F 48.2 °F 30% 29.96 in 10.0 mi South 9.2 mph - N/A   Clear
3:35 PM 82.4 °F 48.2 °F 30% 29.96 in 10.0 mi South 8.1 mph - N/A   Clear
3:55 PM 82.4 °F 46.4 °F 28% 29.96 in 10.0 mi South 8.1 mph - N/A   Clear
4:15 PM 82.4 °F 44.6 °F 26% 29.96 in 10.0 mi SSW 11.5 mph 16.1 mph N/A   Clear
4:35 PM 82.4 °F 46.4 °F 28% 29.95 in 10.0 mi South 11.5 mph - N/A   Clear
4:55 PM 82.4 °F 46.4 °F 28% 29.95 in 10.0 mi South 11.5 mph - N/A   Clear
5:15 PM 82.4 °F 46.4 °F 28% 29.96 in 10.0 mi SSE 12.7 mph 17.3 mph N/A   Clear
5:35 PM 80.6 °F 44.6 °F 28% 29.96 in 10.0 mi South 13.8 mph - N/A   Clear
5:55 PM 80.6 °F 44.6 °F 28% 29.96 in 10.0 mi SSE 9.2 mph - N/A   Clear
6:15 PM 78.8 °F 44.6 °F 30% 29.96 in 10.0 mi SSE 9.2 mph - N/A   Clear
6:35 PM 77.0 °F 46.4 °F 34% 29.96 in 10.0 mi South 8.1 mph - N/A   Clear
6:55 PM 77.0 °F 48.2 °F 36% 29.96 in 10.0 mi SSE 5.8 mph - N/A   Clear
7:15 PM 73.4 °F 50.0 °F 44% 29.97 in 10.0 mi SSE 5.8 mph - N/A   Clear
7:35 PM 71.6 °F 50.0 °F 46% 29.97 in 10.0 mi SE 6.9 mph - N/A   Clear
7:55 PM 71.6 °F 48.2 °F 43% 29.97 in 10.0 mi SE 5.8 mph - N/A   Clear
8:15 PM 69.8 °F 48.2 °F 46% 29.98 in 10.0 mi SE 5.8 mph - N/A   Clear
8:35 PM 68.0 °F 50.0 °F 52% 29.99 in 10.0 mi SE 4.6 mph - N/A   Clear
8:55 PM 68.0 °F 50.0 °F 52% 29.99 in 10.0 mi SE 5.8 mph - N/A   Clear
9:15 PM 68.0 °F 50.0 °F 52% 30.00 in 10.0 mi SE 5.8 mph - N/A   Clear
9:35 PM 68.0 °F 51.8 °F 56% 30.01 in 10.0 mi SE 5.8 mph - N/A   Clear
9:55 PM 68.0 °F 51.8 °F 56% 30.01 in 10.0 mi SE 6.9 mph - N/A   Clear
10:15 PM 68.0 °F 51.8 °F 56% 30.02 in 10.0 mi SE 8.1 mph - N/A   Clear
10:35 PM 66.2 °F 51.8 °F 60% 30.02 in 10.0 mi SE 5.8 mph - N/A   Clear
10:55 PM 64.4 °F 51.8 °F 64% 30.03 in 10.0 mi SE 5.8 mph - N/A   Clear
11:15 PM 64.4 °F 53.6 °F 68% 30.03 in 10.0 mi SE 5.8 mph - N/A   Clear
11:35 PM 64.4 °F 53.6 °F 68% 30.03 in 10.0 mi SE 5.8 mph - N/A   Clear
11:55 PM 64.4 °F 53.6 °F 68% 30.03 in 10.0 mi SE 6.9 mph - N/A   Clear